sensor_id;sensor_type;location;lat;lon;timestamp;pressure;altitude;pressure_sealevel;temperature;humidity
15634;BME280;14654;48.898;8.308;2023-11-21T00:00:14;99666.78;;;9.85;100.00
15634;BME280;14654;48.898;8.308;2023-11-21T00:02:40;99665.03;;;9.87;100.00
15634;BME280;14654;48.898;8.308;2023-11-21T00:05:12;99667.63;;;9.89;100.00
15634;BME280;14654;48.898;8.308;2023-11-21T00:07:40;99666.75;;;9.90;100.00
15634;BME280;14654;48.898;8.308;2023-11-21T00:10:06;99672.75;;;9.90;100.00
15634;BME280;14654;48.898;8.308;2023-11-21T00:12:33;99666.75;;;9.88;100.00
15634;BME280;14654;48.898;8.308;2023-11-21T00:14:59;99678.78;;;9.89;100.00
15634;BME280;14654;48.898;8.308;2023-11-21T00:17:24;99670.13;;;9.92;100.00
15634;BME280;14654;48.898;8.308;2023-11-21T00:19:50;99669.28;;;9.91;100.00
15634;BME280;14654;48.898;8.308;2023-11-21T00:22:17;99666.69;;;9.91;100.00
15634;BME280;14654;48.898;8.308;2023-11-21T00:24:42;99668.41;;;9.93;100.00
15634;BME280;14654;48.898;8.308;2023-11-21T00:27:08;99666.69;;;9.91;100.00
15634;BME280;14654;48.898;8.308;2023-11-21T00:29:33;99667.53;;;9.92;100.00
15634;BME280;14654;48.898;8.308;2023-11-21T00:31:58;99665.81;;;9.93;100.00
15634;BME280;14654;48.898;8.308;2023-11-21T00:34:24;99670.13;;;9.92;100.00
15634;BME280;14654;48.898;8.308;2023-11-21T00:36:49;99667.53;;;9.94;100.00
15634;BME280;14654;48.898;8.308;2023-11-21T00:39:14;99664.03;;;9.96;100.00
15634;BME280;14654;48.898;8.308;2023-11-21T00:41:40;99662.28;;;9.98;100.00
15634;BME280;14654;48.898;8.308;2023-11-21T00:44:07;99656.19;;;10.01;100.00
15634;BME280;14654;48.898;8.308;2023-11-21T00:46:32;99666.53;;;10.02;100.00
15634;BME280;14654;48.898;8.308;2023-11-21T00:48:57;99658.78;;;10.02;100.00
15634;BME280;14654;48.898;8.308;2023-11-21T00:51:23;99652.72;;;10.03;100.00
15634;BME280;14654;48.898;8.308;2023-11-21T00:53:48;99654.50;;;10.00;100.00
15634;BME280;14654;48.898;8.308;2023-11-21T00:56:14;99656.19;;;10.01;100.00
15634;BME280;14654;48.898;8.308;2023-11-21T00:58:40;99653.66;;;9.99;100.00
15634;BME280;14654;48.898;8.308;2023-11-21T01:01:11;99661.44;;;9.98;100.00
15634;BME280;14654;48.898;8.308;2023-11-21T01:03:36;99662.25;;;10.00;100.00
15634;BME280;14654;48.898;8.308;2023-11-21T01:06:02;99664.88;;;9.98;100.00
15634;BME280;14654;48.898;8.308;2023-11-21T01:08:27;99670.88;;;9.99;100.00
15634;BME280;14654;48.898;8.308;2023-11-21T01:10:53;99664.00;;;9.99;100.00
15634;BME280;14654;48.898;8.308;2023-11-21T01:13:20;99670.06;;;9.97;100.00
15634;BME280;14654;48.898;8.308;2023-11-21T01:15:46;99667.53;;;9.94;100.00
15634;BME280;14654;48.898;8.308;2023-11-21T01:18:11;99672.66;;;9.95;100.00
15634;BME280;14654;48.898;8.308;2023-11-21T01:20:36;99670.13;;;9.94;100.00
15634;BME280;14654;48.898;8.308;2023-11-21T01:23:02;99665.78;;;9.94;100.00
15634;BME280;14654;48.898;8.308;2023-11-21T01:25:27;99667.56;;;9.90;100.00
15634;BME280;14654;48.898;8.308;2023-11-21T01:27:53;99669.28;;;9.91;100.00
15634;BME280;14654;48.898;8.308;2023-11-21T01:30:18;99675.28;;;9.92;100.00
15634;BME280;14654;48.898;8.308;2023-11-21T01:32:43;99671.88;;;9.91;100.00
15634;BME280;14654;48.898;8.308;2023-11-21T01:35:10;99673.63;;;9.89;100.00
15634;BME280;14654;48.898;8.308;2023-11-21T01:37:36;99673.63;;;9.89;100.00
15634;BME280;14654;48.898;8.308;2023-11-21T01:40:02;99670.19;;;9.89;100.00
15634;BME280;14654;48.898;8.308;2023-11-21T01:42:27;99673.69;;;9.85;100.00
15634;BME280;14654;48.898;8.308;2023-11-21T01:44:54;99666.03;;;9.79;100.00
15634;BME280;14654;48.898;8.308;2023-11-21T01:47:20;99674.66;;;9.77;100.00
15634;BME280;14654;48.898;8.308;2023-11-21T01:49:46;99675.59;;;9.73;100.00
15634;BME280;14654;48.898;8.308;2023-11-21T01:52:12;99664.41;;;9.73;100.00
15634;BME280;14654;48.898;8.308;2023-11-21T01:54:38;99662.69;;;9.72;100.00
15634;BME280;14654;48.898;8.308;2023-11-21T01:57:04;99673.03;;;9.72;100.00
15634;BME280;14654;48.898;8.308;2023-11-21T01:59:34;99673.91;;;9.72;100.00
15634;BME280;14654;48.898;8.308;2023-11-21T02:02:00;99672.22;;;9.68;100.00
15634;BME280;14654;48.898;8.308;2023-11-21T02:04:25;99672.28;;;9.65;100.00
15634;BME280;14654;48.898;8.308;2023-11-21T02:06:51;99676.56;;;9.66;100.00
15634;BME280;14654;48.898;8.308;2023-11-21T02:09:16;99682.66;;;9.62;100.00
15634;BME280;14654;48.898;8.308;2023-11-21T02:11:43;99679.22;;;9.61;100.00
15634;BME280;14654;48.898;8.308;2023-11-21T02:14:09;99691.22;;;9.64;100.00
15634;BME280;14654;48.898;8.308;2023-11-21T02:16:35;99686.91;;;9.66;100.00
15634;BME280;14654;48.898;8.308;2023-11-21T02:19:02;99691.16;;;9.69;100.00
15634;BME280;14654;48.898;8.308;2023-11-21T02:21:29;99700.66;;;9.68;100.00
15634;BME280;14654;48.898;8.308;2023-11-21T02:23:55;99693.75;;;9.69;100.00
15634;BME280;14654;48.898;8.308;2023-11-21T02:26:21;99694.66;;;9.66;100.00
15634;BME280;14654;48.898;8.308;2023-11-21T02:28:46;99690.38;;;9.64;100.00
15634;BME280;14654;48.898;8.308;2023-11-21T02:31:11;99692.97;;;9.62;100.00
15634;BME280;14654;48.898;8.308;2023-11-21T02:33:37;99688.78;;;9.55;100.00
15634;BME280;14654;48.898;8.308;2023-11-21T02:36:03;99686.28;;;9.50;100.00
15634;BME280;14654;48.898;8.308;2023-11-21T02:38:28;99681.19;;;9.44;100.00
15634;BME280;14654;48.898;8.308;2023-11-21T02:40:54;99678.69;;;9.39;100.00
15634;BME280;14654;48.898;8.308;2023-11-21T02:43:19;99677.91;;;9.33;100.00
15634;BME280;14654;48.898;8.308;2023-11-21T02:45:45;99684.84;;;9.27;100.00
15634;BME280;14654;48.898;8.308;2023-11-21T02:48:10;99678.09;;;9.19;100.00
15634;BME280;14654;48.898;8.308;2023-11-21T02:50:35;99672.13;;;9.15;100.00
15634;BME280;14654;48.898;8.308;2023-11-21T02:53:01;99676.47;;;9.11;100.00
15634;BME280;14654;48.898;8.308;2023-11-21T02:55:27;99672.16;;;9.12;100.00
15634;BME280;14654;48.898;8.308;2023-11-21T02:57:53;99679.09;;;9.08;100.00
15634;BME280;14654;48.898;8.308;2023-11-21T03:00:18;99670.47;;;9.08;100.00
15634;BME280;14654;48.898;8.308;2023-11-21T03:02:44;99664.47;;;9.07;100.00
15634;BME280;14654;48.898;8.308;2023-11-21T03:05:10;99667.13;;;9.03;100.00
15634;BME280;14654;48.898;8.308;2023-11-21T03:07:39;99662.81;;;9.02;100.00
15634;BME280;14654;48.898;8.308;2023-11-21T03:10:08;99668.91;;;8.96;100.00
15634;BME280;14654;48.898;8.308;2023-11-21T03:12:34;99664.66;;;8.92;100.00
15634;BME280;14654;48.898;8.308;2023-11-21T03:14:59;99659.53;;;8.89;100.00
15634;BME280;14654;48.898;8.308;2023-11-21T03:17:27;99662.97;;;8.88;100.00
15634;BME280;14654;48.898;8.308;2023-11-21T03:19:52;99668.13;;;8.88;100.00
15634;BME280;14654;48.898;8.308;2023-11-21T03:22:17;99669.00;;;8.87;100.00
15634;BME280;14654;48.898;8.308;2023-11-21T03:24:42;99675.88;;;8.89;100.00
15634;BME280;14654;48.898;8.308;2023-11-21T03:27:08;99674.97;;;8.92;100.00
15634;BME280;14654;48.898;8.308;2023-11-21T03:29:33;99668.97;;;8.91;100.00
15634;BME280;14654;48.898;8.308;2023-11-21T03:31:58;99669.81;;;8.92;100.00
15634;BME280;14654;48.898;8.308;2023-11-21T03:34:27;99672.38;;;8.93;100.00
15634;BME280;14654;48.898;8.308;2023-11-21T03:36:53;99669.78;;;8.93;100.00
15634;BME280;14654;48.898;8.308;2023-11-21T03:39:22;99664.66;;;8.92;100.00
15634;BME280;14654;48.898;8.308;2023-11-21T03:41:47;99667.28;;;8.90;100.00
15634;BME280;14654;48.898;8.308;2023-11-21T03:44:14;99669.81;;;8.92;100.00
15634;BME280;14654;48.898;8.308;2023-11-21T03:46:39;99677.59;;;8.90;100.00
15634;BME280;14654;48.898;8.308;2023-11-21T03:49:04;99675.88;;;8.89;100.00
15634;BME280;14654;48.898;8.308;2023-11-21T03:51:30;99668.13;;;8.88;100.00
15634;BME280;14654;48.898;8.308;2023-11-21T03:53:55;99663.88;;;8.85;100.00
15634;BME280;14654;48.898;8.308;2023-11-21T03:56:20;99671.63;;;8.85;100.00
15634;BME280;14654;48.898;8.308;2023-11-21T03:58:49;99664.72;;;8.87;100.00
15634;BME280;14654;48.898;8.308;2023-11-21T04:01:24;99677.63;;;8.87;100.00
15634;BME280;14654;48.898;8.308;2023-11-21T04:03:50;99678.47;;;8.88;100.00
15634;BME280;14654;48.898;8.308;2023-11-21T04:06:16;99686.19;;;8.89;100.00
15634;BME280;14654;48.898;8.308;2023-11-21T04:08:45;99685.34;;;8.90;100.00
15634;BME280;14654;48.898;8.308;2023-11-21T04:11:11;99687.88;;;8.92;100.00
15634;BME280;14654;48.898;8.308;2023-11-21T04:13:40;99694.75;;;8.93;100.00
15634;BME280;14654;48.898;8.308;2023-11-21T04:16:08;99689.56;;;8.94;100.00
15634;BME280;14654;48.898;8.308;2023-11-21T04:18:36;99698.16;;;8.96;100.00
15634;BME280;14654;48.898;8.308;2023-11-21T04:21:03;99688.69;;;8.95;100.00
15634;BME280;14654;48.898;8.308;2023-11-21T04:23:29;99701.59;;;8.97;100.00
15634;BME280;14654;48.898;8.308;2023-11-21T04:25:56;99692.91;;;9.01;100.00
15634;BME280;14654;48.898;8.308;2023-11-21T04:28:25;99697.28;;;8.99;100.00
15634;BME280;14654;48.898;8.308;2023-11-21T04:30:50;99699.00;;;8.98;100.00
15634;BME280;14654;48.898;8.308;2023-11-21T04:33:16;99701.59;;;8.97;100.00
15634;BME280;14654;48.898;8.308;2023-11-21T04:35:41;99703.31;;;8.96;100.00
15634;BME280;14654;48.898;8.308;2023-11-21T04:38:07;99705.84;;;8.99;100.00
15634;BME280;14654;48.898;8.308;2023-11-21T04:40:32;99708.47;;;8.98;100.00
15634;BME280;14654;48.898;8.308;2023-11-21T04:42:57;99715.34;;;8.99;100.00
15634;BME280;14654;48.898;8.308;2023-11-21T04:45:23;99710.16;;;9.00;100.00
15634;BME280;14654;48.898;8.308;2023-11-21T04:47:48;99713.56;;;9.03;100.00
15634;BME280;14654;48.898;8.308;2023-11-21T04:50:14;99720.44;;;9.02;100.00
15634;BME280;14654;48.898;8.308;2023-11-21T04:52:39;99718.69;;;9.04;100.00
15634;BME280;14654;48.898;8.308;2023-11-21T04:55:05;99717.00;;;9.03;100.00
15634;BME280;14654;48.898;8.308;2023-11-21T04:57:31;99706.59;;;9.08;100.00
15634;BME280;14654;48.898;8.308;2023-11-21T04:59:56;99714.41;;;9.05;100.00
15634;BME280;14654;48.898;8.308;2023-11-21T05:02:22;99717.00;;;9.05;100.00
15634;BME280;14654;48.898;8.308;2023-11-21T05:04:47;99723.03;;;9.02;100.00
15634;BME280;14654;48.898;8.308;2023-11-21T05:07:13;99718.75;;;8.99;100.00
15634;BME280;14654;48.898;8.308;2023-11-21T05:09:44;99723.09;;;8.97;100.00
15634;BME280;14654;48.898;8.308;2023-11-21T05:12:11;99723.94;;;8.96;100.00
15634;BME280;14654;48.898;8.308;2023-11-21T05:14:37;99729.97;;;8.98;100.00
15634;BME280;14654;48.898;8.308;2023-11-21T05:17:02;99730.81;;;8.97;100.00
15634;BME280;14654;48.898;8.308;2023-11-21T05:19:29;99729.94;;;9.00;100.00
15634;BME280;14654;48.898;8.308;2023-11-21T05:21:54;99737.66;;;9.00;100.00
15634;BME280;14654;48.898;8.308;2023-11-21T05:24:20;99735.91;;;9.05;100.00
15634;BME280;14654;48.898;8.308;2023-11-21T05:26:45;99744.50;;;9.06;100.00
15634;BME280;14654;48.898;8.308;2023-11-21T05:29:10;99747.09;;;9.06;100.00
15634;BME280;14654;48.898;8.308;2023-11-21T05:31:36;99745.31;;;9.09;100.00
15634;BME280;14654;48.898;8.308;2023-11-21T05:34:03;99742.72;;;9.11;100.00
15634;BME280;14654;48.898;8.308;2023-11-21T05:36:28;99741.84;;;9.12;100.00
15634;BME280;14654;48.898;8.308;2023-11-21T05:38:53;99752.97;;;9.17;100.00
15634;BME280;14654;48.898;8.308;2023-11-21T05:41:19;99759.88;;;9.15;100.00
15634;BME280;14654;48.898;8.308;2023-11-21T05:43:44;99757.31;;;9.15;100.00
15634;BME280;14654;48.898;8.308;2023-11-21T05:46:09;99765.03;;;9.17;100.00
15634;BME280;14654;48.898;8.308;2023-11-21T05:48:35;99768.47;;;9.15;100.00
15634;BME280;14654;48.898;8.308;2023-11-21T05:51:04;99765.03;;;9.17;100.00
15634;BME280;14654;48.898;8.308;2023-11-21T05:53:29;99771.91;;;9.18;100.00
15634;BME280;14654;48.898;8.308;2023-11-21T05:55:55;99777.94;;;9.17;100.00
15634;BME280;14654;48.898;8.308;2023-11-21T05:58:21;99768.47;;;9.17;100.00
15634;BME280;14654;48.898;8.308;2023-11-21T06:00:46;99776.22;;;9.17;100.00
15634;BME280;14654;48.898;8.308;2023-11-21T06:03:11;99777.09;;;9.16;100.00
15634;BME280;14654;48.898;8.308;2023-11-21T06:05:37;99775.38;;;9.15;100.00
15634;BME280;14654;48.898;8.308;2023-11-21T06:08:03;99775.41;;;9.13;100.00
15634;BME280;14654;48.898;8.308;2023-11-21T06:10:28;99775.41;;;9.12;100.00
15634;BME280;14654;48.898;8.308;2023-11-21T06:12:53;99777.13;;;9.13;100.00
15634;BME280;14654;48.898;8.308;2023-11-21T06:15:19;99783.16;;;9.13;100.00
15634;BME280;14654;48.898;8.308;2023-11-21T06:17:46;99784.88;;;9.11;100.00
15634;BME280;14654;48.898;8.308;2023-11-21T06:20:18;99788.31;;;9.13;100.00
15634;BME280;14654;48.898;8.308;2023-11-21T06:22:45;99779.69;;;9.14;100.00
15634;BME280;14654;48.898;8.308;2023-11-21T06:25:12;99782.28;;;9.13;100.00
15634;BME280;14654;48.898;8.308;2023-11-21T06:27:46;99794.34;;;9.12;100.00
15634;BME280;14654;48.898;8.308;2023-11-21T06:30:13;99799.47;;;9.14;100.00
15634;BME280;14654;48.898;8.308;2023-11-21T06:32:39;99801.19;;;9.15;100.00
15634;BME280;14654;48.898;8.308;2023-11-21T06:35:06;99798.59;;;9.15;100.00
15634;BME280;14654;48.898;8.308;2023-11-21T06:37:32;99804.63;;;9.15;100.00
15634;BME280;14654;48.898;8.308;2023-11-21T06:39:58;99805.47;;;9.16;100.00
15634;BME280;14654;48.898;8.308;2023-11-21T06:42:24;99807.19;;;9.15;100.00
15634;BME280;14654;48.898;8.308;2023-11-21T06:44:50;99807.19;;;9.15;100.00
15634;BME280;14654;48.898;8.308;2023-11-21T06:47:19;99800.31;;;9.16;100.00
15634;BME280;14654;48.898;8.308;2023-11-21T06:49:56;99798.59;;;9.15;100.00
15634;BME280;14654;48.898;8.308;2023-11-21T06:52:21;99806.34;;;9.15;100.00
15634;BME280;14654;48.898;8.308;2023-11-21T06:54:47;99808.91;;;9.18;100.00
15634;BME280;14654;48.898;8.308;2023-11-21T06:57:14;99814.91;;;9.20;100.00
15634;BME280;14654;48.898;8.308;2023-11-21T06:59:40;99821.75;;;9.23;100.00
15634;BME280;14654;48.898;8.308;2023-11-21T07:02:06;99820.00;;;9.26;100.00
15634;BME280;14654;48.898;8.308;2023-11-21T07:04:37;99829.44;;;9.29;100.00
15634;BME280;14654;48.898;8.308;2023-11-21T07:07:03;99825.97;;;9.32;100.00
15634;BME280;14654;48.898;8.308;2023-11-21T07:09:29;99837.16;;;9.34;100.00
15634;BME280;14654;48.898;8.308;2023-11-21T07:11:55;99837.97;;;9.34;100.00
15634;BME280;14654;48.898;8.308;2023-11-21T07:14:21;99842.28;;;9.37;100.00
15634;BME280;14654;48.898;8.308;2023-11-21T07:16:47;99841.41;;;9.36;100.00
15634;BME280;14654;48.898;8.308;2023-11-21T07:19:13;99840.50;;;9.39;100.00
15634;BME280;14654;48.898;8.308;2023-11-21T07:21:39;99849.13;;;9.39;100.00
15634;BME280;14654;48.898;8.308;2023-11-21T07:24:06;99852.56;;;9.41;100.00
15634;BME280;14654;48.898;8.308;2023-11-21T07:26:32;99851.72;;;9.38;100.00
15634;BME280;14654;48.898;8.308;2023-11-21T07:29:04;99857.75;;;9.38;100.00
15634;BME280;14654;48.898;8.308;2023-11-21T07:31:31;99857.78;;;9.37;100.00
15634;BME280;14654;48.898;8.308;2023-11-21T07:33:59;99872.38;;;9.39;100.00
15634;BME280;14654;48.898;8.308;2023-11-21T07:36:25;99867.19;;;9.42;100.00
15634;BME280;14654;48.898;8.308;2023-11-21T07:38:53;99867.16;;;9.44;100.00
15634;BME280;14654;48.898;8.308;2023-11-21T07:41:19;99872.28;;;9.45;100.00
15634;BME280;14654;48.898;8.308;2023-11-21T07:43:45;99879.16;;;9.48;100.00
15634;BME280;14654;48.898;8.308;2023-11-21T07:46:11;99870.53;;;9.51;100.00
15634;BME280;14654;48.898;8.308;2023-11-21T07:48:41;99876.50;;;9.54;100.00
15634;BME280;14654;48.898;8.308;2023-11-21T07:51:08;99877.38;;;9.55;100.00
15634;BME280;14654;48.898;8.308;2023-11-21T07:53:34;99888.50;;;9.58;100.00
15634;BME280;14654;48.898;8.308;2023-11-21T07:56:06;99885.03;;;9.61;100.00
15634;BME280;14654;48.898;8.308;2023-11-21T07:58:33;99884.16;;;9.64;100.00
15634;BME280;14654;48.898;8.308;2023-11-21T08:01:04;99891.88;;;9.65;100.00
15634;BME280;14654;48.898;8.308;2023-11-21T08:03:30;99880.72;;;9.65;100.00
15634;BME280;14654;48.898;8.308;2023-11-21T08:05:59;99893.63;;;9.65;100.00
15634;BME280;14654;48.898;8.308;2023-11-21T08:08:25;99884.16;;;9.64;100.00
15634;BME280;14654;48.898;8.308;2023-11-21T08:10:51;99897.06;;;9.62;100.00
15634;BME280;14654;48.898;8.308;2023-11-21T08:13:26;99903.13;;;9.63;100.00
15634;BME280;14654;48.898;8.308;2023-11-21T08:15:56;99900.53;;;9.63;100.00
15634;BME280;14654;48.898;8.308;2023-11-21T08:18:23;99903.97;;;9.65;100.00
15634;BME280;14654;48.898;8.308;2023-11-21T08:20:49;99910.00;;;9.64;100.00
15634;BME280;14654;48.898;8.308;2023-11-21T08:23:15;99909.13;;;9.65;100.00
15634;BME280;14654;48.898;8.308;2023-11-21T08:25:43;99916.84;;;9.68;100.00
15634;BME280;14654;48.898;8.308;2023-11-21T08:28:09;99922.00;;;9.69;100.00
15634;BME280;14654;48.898;8.308;2023-11-21T08:30:34;99925.41;;;9.71;100.00
15634;BME280;14654;48.898;8.308;2023-11-21T08:33:00;99921.94;;;9.74;100.00
15634;BME280;14654;48.898;8.308;2023-11-21T08:35:25;99928.78;;;9.76;100.00
15634;BME280;14654;48.898;8.308;2023-11-21T08:37:51;99927.91;;;9.77;100.00
15634;BME280;14654;48.898;8.308;2023-11-21T08:40:18;99940.81;;;9.81;100.00
15634;BME280;14654;48.898;8.308;2023-11-21T08:42:44;99933.91;;;9.83;100.00
15634;BME280;14654;48.898;8.308;2023-11-21T08:45:11;99938.16;;;9.85;100.00
15634;BME280;14654;48.898;8.308;2023-11-21T08:47:36;99934.69;;;9.89;100.00
15634;BME280;14654;48.898;8.308;2023-11-21T08:50:02;99944.13;;;9.92;100.00
15634;BME280;14654;48.898;8.308;2023-11-21T08:52:28;99944.13;;;9.94;100.00
15634;BME280;14654;48.898;8.308;2023-11-21T08:54:53;99945.81;;;9.93;100.00
15634;BME280;14654;48.898;8.308;2023-11-21T08:57:24;99945.81;;;9.93;100.00
15634;BME280;14654;48.898;8.308;2023-11-21T08:59:50;99941.53;;;9.94;100.00
15634;BME280;14654;48.898;8.308;2023-11-21T09:02:23;99951.91;;;9.90;100.00
15634;BME280;14654;48.898;8.308;2023-11-21T09:04:51;99947.59;;;9.89;100.00
15634;BME280;14654;48.898;8.308;2023-11-21T09:07:18;99950.16;;;9.91;100.00
15634;BME280;14654;48.898;8.308;2023-11-21T09:09:48;99956.16;;;9.95;100.00
15634;BME280;14654;48.898;8.308;2023-11-21T09:12:15;99961.28;;;9.99;100.00
15634;BME280;14654;48.898;8.308;2023-11-21T09:14:41;99959.53;;;10.01;100.00
15634;BME280;14654;48.898;8.308;2023-11-21T09:17:08;99956.03;;;10.05;100.00
15634;BME280;14654;48.898;8.308;2023-11-21T09:19:39;99963.75;;;10.10;100.00
15634;BME280;14654;48.898;8.308;2023-11-21T09:22:05;99961.09;;;10.15;100.00
15634;BME280;14654;48.898;8.308;2023-11-21T09:24:32;99964.47;;;10.18;100.00
15634;BME280;14654;48.898;8.308;2023-11-21T09:26:57;99970.44;;;10.25;100.00
15634;BME280;14654;48.898;8.308;2023-11-21T09:29:22;99966.91;;;10.31;100.00
15634;BME280;14654;48.898;8.308;2023-11-21T09:31:48;99978.09;;;10.33;100.00
15634;BME280;14654;48.898;8.308;2023-11-21T09:34:16;99978.13;;;10.31;100.00
15634;BME280;14654;48.898;8.308;2023-11-21T09:36:44;99979.84;;;10.32;100.00
15634;BME280;14654;48.898;8.308;2023-11-21T09:39:10;99988.41;;;10.36;100.00
15634;BME280;14654;48.898;8.308;2023-11-21T09:44:09;99985.88;;;10.31;100.00
15634;BME280;14654;48.898;8.308;2023-11-21T09:46:41;99988.50;;;10.28;100.00
15634;BME280;14654;48.898;8.308;2023-11-21T09:49:09;99990.22;;;10.29;100.00
15634;BME280;14654;48.898;8.308;2023-11-21T09:51:39;100004.84;;;10.33;100.00
15634;BME280;14654;48.898;8.308;2023-11-21T09:54:09;100001.41;;;10.30;100.00
15634;BME280;14654;48.898;8.308;2023-11-21T09:56:36;100003.13;;;10.32;100.00
15634;BME280;14654;48.898;8.308;2023-11-21T09:59:03;100012.66;;;10.27;100.00
15634;BME280;14654;48.898;8.308;2023-11-21T10:01:32;100004.94;;;10.24;100.00
15634;BME280;14654;48.898;8.308;2023-11-21T10:04:00;100012.75;;;10.19;100.00
15634;BME280;14654;48.898;8.308;2023-11-21T10:06:26;100000.78;;;10.11;100.00
15634;BME280;14654;48.898;8.308;2023-11-21T10:08:53;100004.28;;;10.08;100.00
15634;BME280;14654;48.898;8.308;2023-11-21T10:11:19;100010.38;;;10.02;100.00
15634;BME280;14654;48.898;8.308;2023-11-21T10:13:47;100000.97;;;9.92;100.00
15634;BME280;14654;48.898;8.308;2023-11-21T10:16:15;100007.88;;;9.93;100.00
15634;BME280;14654;48.898;8.308;2023-11-21T10:18:47;100002.69;;;9.95;100.00
15634;BME280;14654;48.898;8.308;2023-11-21T10:21:13;100012.16;;;9.94;100.00
15634;BME280;14654;48.898;8.308;2023-11-21T10:23:39;100007.94;;;9.90;100.00
15634;BME280;14654;48.898;8.308;2023-11-21T10:26:06;100014.84;;;9.86;100.00
15634;BME280;14654;48.898;8.308;2023-11-21T10:28:35;100005.41;;;9.82;100.00
15634;BME280;14654;48.898;8.308;2023-11-21T10:31:02;100004.56;;;9.79;100.00
15634;BME280;14654;48.898;8.308;2023-11-21T10:33:28;100010.66;;;9.73;100.00
15634;BME280;14654;48.898;8.308;2023-11-21T10:35:54;100016.78;;;9.66;100.00
15634;BME280;14654;48.898;8.308;2023-11-21T10:38:20;100017.66;;;9.65;100.00
15634;BME280;14654;48.898;8.308;2023-11-21T10:40:48;100018.53;;;9.60;100.00
15634;BME280;14654;48.898;8.308;2023-11-21T10:43:15;100023.81;;;9.51;100.00
15634;BME280;14654;48.898;8.308;2023-11-21T10:45:41;100019.50;;;9.50;100.00
15634;BME280;14654;48.898;8.308;2023-11-21T10:48:12;100030.69;;;9.51;100.00
15634;BME280;14654;48.898;8.308;2023-11-21T10:50:42;100022.94;;;9.51;100.00
15634;BME280;14654;48.898;8.308;2023-11-21T10:53:08;100028.91;;;9.54;100.00
15634;BME280;14654;48.898;8.308;2023-11-21T10:55:33;100034.13;;;9.50;100.00
15634;BME280;14654;48.898;8.308;2023-11-21T10:58:01;100045.34;;;9.50;100.00
15634;BME280;14654;48.898;8.308;2023-11-21T11:00:28;100042.75;;;9.49;100.00
15634;BME280;14654;48.898;8.308;2023-11-21T11:02:55;100041.00;;;9.54;100.00
15634;BME280;14654;48.898;8.308;2023-11-21T11:05:30;100040.13;;;9.52;100.00
15634;BME280;14654;48.898;8.308;2023-11-21T11:08:08;100030.69;;;9.49;100.00
15634;BME280;14654;48.898;8.308;2023-11-21T11:10:36;100035.81;;;9.54;100.00
15634;BME280;14654;48.898;8.308;2023-11-21T11:13:02;100043.53;;;9.55;100.00
15634;BME280;14654;48.898;8.308;2023-11-21T11:15:28;100046.13;;;9.55;100.00
15634;BME280;14654;48.898;8.308;2023-11-21T11:17:54;100041.00;;;9.54;100.00
15634;BME280;14654;48.898;8.308;2023-11-21T11:20:24;100047.84;;;9.58;100.00
15634;BME280;14654;48.898;8.308;2023-11-21T11:28:22;100054.78;;;9.53;100.00
15634;BME280;14654;48.898;8.308;2023-11-21T11:31:04;100051.28;;;9.55;100.00
15634;BME280;14654;48.898;8.308;2023-11-21T11:36:29;100048.75;;;9.52;100.00
15634;BME280;14654;48.898;8.308;2023-11-21T11:38:59;100047.91;;;9.49;100.00
15634;BME280;14654;48.898;8.308;2023-11-21T11:41:30;100045.31;;;9.49;100.00
15634;BME280;14654;48.898;8.308;2023-11-21T11:43:57;100045.31;;;9.49;100.00
15634;BME280;14654;48.898;8.308;2023-11-21T11:46:42;100048.78;;;9.48;100.00
15634;BME280;14654;48.898;8.308;2023-11-21T11:49:07;100058.25;;;9.45;100.00
15634;BME280;14654;48.898;8.308;2023-11-21T11:51:33;100054.81;;;9.48;100.00
15634;BME280;14654;48.898;8.308;2023-11-21T11:54:01;100062.56;;;9.48;100.00
15634;BME280;14654;48.898;8.308;2023-11-21T11:56:31;100053.94;;;9.49;100.00
15634;BME280;14654;48.898;8.308;2023-11-21T11:59:00;100049.66;;;9.48;100.00
15634;BME280;14654;48.898;8.308;2023-11-21T12:01:28;100053.00;;;9.56;100.00
15634;BME280;14654;48.898;8.308;2023-11-21T12:06:46;100050.44;;;9.55;100.00
15634;BME280;14654;48.898;8.308;2023-11-21T12:09:24;100053.84;;;9.61;100.00
15634;BME280;14654;48.898;8.308;2023-11-21T12:11:51;100041.75;;;9.67;100.00
15634;BME280;14654;48.898;8.308;2023-11-21T12:14:17;100052.94;;;9.64;100.00
15634;BME280;14654;48.898;8.308;2023-11-21T12:16:43;100055.53;;;9.66;100.00
15634;BME280;14654;48.898;8.308;2023-11-21T12:19:12;100056.38;;;9.68;100.00
15634;BME280;14654;48.898;8.308;2023-11-21T12:21:38;100049.38;;;9.77;100.00
15634;BME280;14654;48.898;8.308;2023-11-21T12:24:06;100050.28;;;9.75;100.00
15634;BME280;14654;48.898;8.308;2023-11-21T12:26:34;100050.25;;;9.76;100.00
15634;BME280;14654;48.898;8.308;2023-11-21T12:29:00;100049.38;;;9.79;100.00
15634;BME280;14654;48.898;8.308;2023-11-21T12:31:26;100052.00;;;9.73;100.00
15634;BME280;14654;48.898;8.308;2023-11-21T12:33:52;100051.16;;;9.75;100.00
15634;BME280;14654;48.898;8.308;2023-11-21T12:36:17;100057.22;;;9.68;100.00
15634;BME280;14654;48.898;8.308;2023-11-21T12:38:42;100061.56;;;9.63;100.00
15634;BME280;14654;48.898;8.308;2023-11-21T12:41:09;100070.22;;;9.57;100.00
15634;BME280;14654;48.898;8.308;2023-11-21T12:43:36;100076.28;;;9.58;100.00
15634;BME280;14654;48.898;8.308;2023-11-21T12:46:08;100070.25;;;9.54;100.00
15634;BME280;14654;48.898;8.308;2023-11-21T12:48:38;100072.00;;;9.52;100.00
15634;BME280;14654;48.898;8.308;2023-11-21T12:51:11;100083.16;;;9.54;100.00
15634;BME280;14654;48.898;8.308;2023-11-21T12:53:40;100081.50;;;9.47;100.00
15634;BME280;14654;48.898;8.308;2023-11-21T12:56:12;100084.94;;;9.48;100.00
15634;BME280;14654;48.898;8.308;2023-11-21T12:58:39;100086.63;;;9.55;100.00
15634;BME280;14654;48.898;8.308;2023-11-21T13:01:06;100077.94;;;9.64;100.00
15634;BME280;14654;48.898;8.308;2023-11-21T13:03:37;100084.75;;;9.71;100.00
15634;BME280;14654;48.898;8.308;2023-11-21T13:06:03;100084.69;;;9.80;100.00
15634;BME280;14654;48.898;8.308;2023-11-21T13:08:30;100088.09;;;9.84;100.00